createdAt,value
2023-02-28T00:01:33.520Z,5.13
2023-02-28T00:04:01.762Z,3.50
2023-02-28T00:06:29.951Z,4.43
2023-02-28T00:08:58.546Z,2.90
2023-02-28T00:11:28.418Z,4.27
2023-02-28T00:13:56.755Z,5.27
2023-02-28T00:16:25.436Z,4.37
2023-02-28T00:18:53.900Z,6.50
2023-02-28T00:21:22.598Z,4.90
2023-02-28T00:23:50.948Z,9.07
2023-02-28T00:26:21.670Z,5.30
2023-02-28T00:28:53.636Z,4.00
2023-02-28T00:31:21.886Z,6.03
2023-02-28T00:33:50.137Z,4.30
2023-02-28T00:36:18.359Z,3.27
2023-02-28T00:38:46.573Z,4.10
2023-02-28T00:41:14.743Z,4.43
2023-02-28T00:43:43.599Z,5.90
2023-02-28T00:46:13.171Z,4.03
2023-02-28T00:48:41.344Z,4.90
2023-02-28T00:51:09.638Z,4.87
2023-02-28T00:53:37.846Z,3.10
2023-02-28T00:56:06.221Z,3.30
2023-02-28T00:58:34.523Z,4.33
2023-02-28T01:01:02.935Z,4.70
2023-02-28T01:03:32.527Z,3.63
2023-02-28T01:06:00.728Z,4.63
2023-02-28T01:08:28.917Z,4.10
2023-02-28T01:10:57.199Z,3.60
2023-02-28T01:13:26.246Z,3.07
2023-02-28T01:15:55.495Z,5.63
2023-02-28T01:18:24.033Z,4.20
2023-02-28T01:20:53.699Z,4.77
2023-02-28T01:23:22.623Z,5.23
2023-02-28T01:25:50.895Z,3.60
2023-02-28T01:28:19.141Z,3.30
2023-02-28T01:30:50.363Z,4.37
2023-02-28T01:33:18.709Z,3.40
2023-02-28T01:35:47.013Z,3.50
2023-02-28T01:38:22.455Z,4.50
2023-02-28T01:40:51.626Z,4.33
2023-02-28T01:43:22.296Z,8.23
2023-02-28T01:45:50.587Z,3.97
2023-02-28T01:48:19.582Z,4.27
2023-02-28T01:50:49.890Z,3.80
2023-02-28T01:53:21.058Z,4.43
2023-02-28T01:55:51.877Z,5.77
2023-02-28T01:58:20.533Z,4.70
2023-02-28T02:00:48.871Z,3.37
2023-02-28T02:03:19.934Z,5.03
2023-02-28T02:05:49.077Z,3.30
2023-02-28T02:08:19.530Z,4.03
2023-02-28T02:10:52.181Z,4.43
2023-02-28T02:13:29.777Z,3.00
2023-02-28T02:16:02.978Z,5.37
2023-02-28T02:18:35.008Z,3.87
2023-02-28T02:21:13.112Z,7.00
2023-02-28T02:24:14.350Z,4.63
2023-02-28T02:26:51.278Z,5.83
2023-02-28T02:29:38.747Z,4.77
2023-02-28T02:32:17.227Z,8.17
2023-02-28T02:34:50.996Z,4.90
2023-02-28T02:37:24.789Z,5.60
2023-02-28T02:39:56.278Z,6.87
2023-02-28T02:42:26.482Z,7.20
2023-02-28T02:44:57.508Z,4.37
2023-02-28T02:47:27.203Z,4.23
2023-02-28T02:49:58.393Z,8.00
2023-02-28T02:52:31.348Z,4.57
2023-02-28T02:55:00.249Z,6.30
2023-02-28T02:57:32.086Z,5.37
2023-02-28T03:00:01.354Z,4.37
2023-02-28T03:02:35.109Z,5.77
2023-02-28T03:05:07.246Z,4.50
2023-02-28T03:07:35.474Z,5.50
2023-02-28T03:10:03.655Z,5.70
2023-02-28T03:12:35.172Z,4.83
2023-02-28T03:15:10.479Z,5.17
2023-02-28T03:17:50.691Z,5.93
2023-02-28T03:20:27.286Z,6.90
2023-02-28T03:22:58.180Z,4.23
2023-02-28T03:25:32.099Z,5.70
2023-02-28T03:28:03.863Z,6.50
2023-02-28T03:30:34.296Z,4.97
2023-02-28T03:33:06.661Z,6.30
2023-02-28T03:35:38.669Z,4.70
2023-02-28T03:38:09.475Z,7.80
2023-02-28T03:40:39.788Z,5.23
2023-02-28T03:43:12.436Z,9.53
2023-02-28T03:45:41.739Z,7.00
2023-02-28T03:48:11.737Z,7.50
2023-02-28T03:50:42.249Z,5.93
2023-02-28T03:53:12.654Z,5.40
2023-02-28T03:55:41.846Z,6.93
2023-02-28T03:58:14.328Z,9.13
2023-02-28T04:00:44.238Z,7.17
2023-02-28T04:03:12.431Z,6.33
2023-02-28T04:05:50.827Z,7.20
2023-02-28T04:08:18.986Z,6.23
2023-02-28T04:10:50.163Z,5.43
2023-02-28T04:13:18.304Z,8.97
2023-02-28T04:15:46.518Z,4.53
2023-02-28T04:18:14.727Z,7.17
2023-02-28T04:20:42.951Z,8.27
2023-02-28T04:23:12.429Z,5.47
2023-02-28T04:25:41.801Z,5.60
2023-02-28T04:28:10.673Z,8.30
2023-02-28T04:30:40.743Z,8.90
2023-02-28T04:33:08.960Z,5.07
2023-02-28T04:35:37.176Z,7.33
2023-02-28T04:38:05.366Z,5.07
2023-02-28T04:40:34.956Z,5.30
2023-02-28T04:43:04.365Z,7.90
2023-02-28T04:45:34.900Z,7.80
2023-02-28T04:48:03.154Z,7.53
2023-02-28T04:50:31.346Z,7.77
2023-02-28T04:52:59.706Z,7.57
2023-02-28T04:55:27.890Z,6.87
2023-02-28T04:57:57.680Z,7.77
2023-02-28T05:00:26.155Z,8.10
2023-02-28T05:02:54.290Z,8.73
2023-02-28T05:05:22.522Z,8.30
2023-02-28T05:07:50.894Z,10.73
2023-02-28T05:10:19.475Z,6.57
2023-02-28T05:12:48.944Z,6.03
2023-02-28T05:15:19.084Z,8.47
2023-02-28T05:17:47.369Z,7.87
2023-02-28T05:20:16.365Z,6.63
2023-02-28T05:22:44.952Z,9.77
2023-02-28T05:25:15.990Z,10.03
2023-02-28T05:27:44.315Z,8.53
2023-02-28T05:30:13.130Z,7.57
2023-02-28T05:32:43.785Z,8.83
2023-02-28T05:35:12.633Z,8.73
2023-02-28T05:37:41.357Z,8.97
2023-02-28T05:40:11.354Z,8.47
2023-02-28T05:42:39.731Z,8.47
2023-02-28T05:45:09.067Z,8.57
2023-02-28T05:47:37.515Z,9.77
2023-02-28T05:50:07.914Z,9.50
2023-02-28T05:52:36.113Z,8.73
2023-02-28T05:55:04.286Z,9.00
2023-02-28T05:57:32.551Z,7.93
2023-02-28T06:00:00.718Z,7.43
2023-02-28T06:02:29.234Z,7.53
2023-02-28T06:04:57.528Z,7.20
2023-02-28T06:07:27.160Z,9.60
2023-02-28T06:09:55.383Z,7.50
2023-02-28T06:12:23.659Z,8.97
2023-02-28T06:14:51.877Z,10.10
2023-02-28T06:17:20.066Z,7.53
2023-02-28T06:19:49.049Z,7.80
2023-02-28T06:22:17.228Z,7.93
2023-02-28T06:24:46.771Z,15.30
2023-02-28T06:27:15.024Z,8.83
2023-02-28T06:29:43.255Z,8.33
2023-02-28T06:32:11.469Z,7.23
2023-02-28T06:34:39.824Z,10.80
2023-02-28T06:37:08.117Z,8.80
2023-02-28T06:39:36.408Z,7.97
2023-02-28T06:42:06.215Z,11.27
2023-02-28T06:44:36.492Z,9.93
2023-02-28T06:47:05.684Z,10.73
2023-02-28T06:49:34.231Z,10.73
2023-02-28T06:52:02.422Z,9.87
2023-02-28T06:54:30.632Z,10.87
2023-02-28T06:57:00.229Z,10.53
2023-02-28T06:59:29.745Z,8.07
2023-02-28T07:01:58.006Z,9.73
2023-02-28T07:04:26.667Z,7.23
2023-02-28T07:06:56.986Z,9.07
2023-02-28T07:09:25.315Z,9.90
2023-02-28T07:11:53.565Z,8.10
2023-02-28T07:14:22.974Z,8.23
2023-02-28T07:16:52.573Z,7.30
2023-02-28T07:19:21.186Z,7.33
2023-02-28T07:21:49.360Z,8.90
2023-02-28T07:24:18.948Z,5.90
2023-02-28T07:26:47.216Z,7.23
2023-02-28T07:29:15.394Z,6.43
2023-02-28T07:31:43.785Z,7.67
2023-02-28T07:34:13.373Z,8.60
2023-02-28T07:36:41.570Z,6.87
2023-02-28T07:39:11.204Z,6.00
2023-02-28T07:41:44.244Z,4.70
2023-02-28T07:44:12.520Z,4.77
2023-02-28T07:46:40.976Z,9.40
2023-02-28T07:49:09.287Z,6.10
2023-02-28T07:51:38.854Z,6.20
2023-02-28T07:54:07.410Z,5.40
2023-02-28T07:56:35.589Z,4.57
2023-02-28T07:59:03.788Z,5.83
2023-02-28T08:01:32.224Z,4.53
2023-02-28T08:04:01.328Z,6.93
2023-02-28T08:06:29.512Z,5.40
2023-02-28T08:08:59.118Z,5.23
2023-02-28T08:11:27.608Z,5.00
2023-02-28T08:13:57.496Z,5.30
2023-02-28T08:16:25.933Z,4.83
2023-02-28T08:18:54.792Z,5.00
2023-02-28T08:21:23.377Z,5.83
2023-02-28T08:23:51.764Z,7.23
2023-02-28T08:26:21.818Z,5.43
2023-02-28T08:28:50.181Z,6.20
2023-02-28T08:31:19.333Z,5.77
2023-02-28T08:33:49.600Z,5.90
2023-02-28T08:36:17.861Z,6.03
2023-02-28T08:38:46.947Z,5.50
2023-02-28T08:41:15.642Z,5.67
2023-02-28T08:43:45.151Z,6.03
2023-02-28T08:46:14.772Z,5.20
2023-02-28T08:48:43.182Z,5.33
2023-02-28T08:51:12.435Z,7.27
2023-02-28T08:53:41.263Z,5.60
2023-02-28T08:56:10.278Z,5.97
2023-02-28T08:58:38.515Z,6.03
2023-02-28T09:01:13.008Z,7.23
2023-02-28T09:03:41.834Z,5.57
2023-02-28T09:06:10.749Z,6.20
2023-02-28T09:08:38.963Z,6.03
2023-02-28T09:11:07.267Z,5.00
2023-02-28T09:13:35.676Z,5.93
2023-02-28T09:16:05.525Z,6.13
2023-02-28T09:18:36.924Z,6.50
2023-02-28T09:21:05.761Z,5.00
2023-02-28T09:23:34.036Z,4.17
2023-02-28T09:26:02.277Z,4.60
2023-02-28T09:28:30.460Z,4.50
2023-02-28T09:30:59.879Z,6.00
2023-02-28T09:33:28.663Z,5.07
2023-02-28T09:36:02.485Z,5.73
2023-02-28T09:38:31.351Z,6.53
2023-02-28T09:41:01.481Z,4.17
2023-02-28T09:43:30.466Z,6.37
2023-02-28T09:46:02.486Z,6.80
2023-02-28T09:48:32.513Z,5.70
2023-02-28T09:51:04.680Z,5.83
2023-02-28T09:53:35.201Z,5.33
2023-02-28T09:56:05.513Z,4.60
2023-02-28T09:58:36.794Z,4.87
2023-02-28T10:01:06.401Z,4.50
2023-02-28T10:03:38.585Z,5.43
2023-02-28T10:06:11.206Z,4.10
2023-02-28T10:08:46.188Z,6.40
2023-02-28T10:11:15.328Z,4.00
2023-02-28T10:13:50.754Z,4.27
2023-02-28T10:16:22.312Z,6.50
2023-02-28T10:18:53.237Z,5.53
2023-02-28T10:21:24.591Z,4.47
2023-02-28T10:23:54.628Z,4.60
2023-02-28T10:26:24.699Z,4.63
2023-02-28T10:28:54.428Z,3.73
2023-02-28T10:31:24.744Z,4.47
2023-02-28T10:33:53.839Z,6.07
2023-02-28T10:36:26.513Z,5.10
2023-02-28T10:38:56.321Z,4.10
2023-02-28T10:41:35.604Z,4.93
2023-02-28T10:44:17.169Z,4.53
2023-02-28T10:46:45.475Z,6.77
2023-02-28T10:49:17.935Z,5.37
2023-02-28T10:51:46.525Z,4.83
2023-02-28T10:54:20.890Z,3.67
2023-02-28T10:57:07.824Z,5.87
2023-02-28T10:59:36.028Z,5.33
2023-02-28T11:02:05.723Z,4.47
2023-02-28T11:04:38.949Z,3.27
2023-02-28T11:07:08.119Z,5.80
2023-02-28T11:09:39.560Z,4.60
2023-02-28T11:12:09.335Z,4.43
2023-02-28T11:14:39.889Z,5.27
2023-02-28T11:17:16.021Z,3.97
2023-02-28T11:19:52.700Z,5.37
2023-02-28T11:22:22.106Z,3.40
2023-02-28T11:24:53.880Z,4.60
2023-02-28T11:27:29.550Z,4.10
2023-02-28T11:29:57.768Z,4.33
2023-02-28T11:32:27.160Z,4.93
2023-02-28T11:35:03.764Z,3.67
2023-02-28T11:37:33.102Z,3.50
2023-02-28T11:40:04.835Z,3.03
2023-02-28T11:42:44.181Z,4.37
2023-02-28T11:45:20.796Z,2.77
2023-02-28T11:47:51.088Z,2.97
2023-02-28T11:50:23.576Z,3.60
2023-02-28T11:52:54.833Z,3.53
2023-02-28T11:55:26.752Z,4.13
2023-02-28T11:58:08.881Z,4.33
2023-02-28T12:00:41.649Z,6.10
2023-02-28T12:03:18.865Z,3.03
2023-02-28T12:05:48.477Z,2.60
2023-02-28T12:08:28.316Z,3.07
2023-02-28T12:11:05.506Z,2.70
2023-02-28T12:13:39.718Z,3.33
2023-02-28T12:16:28.890Z,2.30
2023-02-28T12:19:03.952Z,2.77
2023-02-28T12:21:37.631Z,5.20
2023-02-28T12:24:20.218Z,3.83
2023-02-28T12:26:50.315Z,4.00
2023-02-28T12:29:21.145Z,3.10
2023-02-28T12:31:52.160Z,3.10
2023-02-28T12:34:22.516Z,3.93
2023-02-28T12:36:51.121Z,4.70
2023-02-28T12:39:22.914Z,2.27
2023-02-28T12:41:55.697Z,3.37
2023-02-28T12:44:26.597Z,3.40
2023-02-28T12:46:56.897Z,2.17
2023-02-28T12:49:31.401Z,2.43
2023-02-28T12:52:00.805Z,3.30
2023-02-28T12:54:32.561Z,2.87
2023-02-28T12:57:05.816Z,2.73
2023-02-28T12:59:37.991Z,4.07
2023-02-28T13:02:18.180Z,5.10
2023-02-28T13:04:50.271Z,4.10
2023-02-28T13:07:26.847Z,3.07
2023-02-28T13:09:55.783Z,2.27
2023-02-28T13:12:26.088Z,2.50
2023-02-28T13:15:04.141Z,2.40
2023-02-28T13:17:32.314Z,3.13
2023-02-28T13:20:01.182Z,3.20
2023-02-28T13:22:40.543Z,3.37
2023-02-28T13:25:23.715Z,3.77
2023-02-28T13:27:57.336Z,3.27
2023-02-28T13:30:43.965Z,2.30
2023-02-28T13:33:25.652Z,2.17
2023-02-28T13:36:09.096Z,2.63
2023-02-28T13:38:38.996Z,2.33
2023-02-28T13:41:26.174Z,2.50
2023-02-28T13:44:06.909Z,2.87
2023-02-28T13:46:36.873Z,2.53
2023-02-28T13:49:22.873Z,2.50
2023-02-28T13:51:52.288Z,2.03
2023-02-28T13:54:36.748Z,2.37
2023-02-28T13:57:12.162Z,2.93
2023-02-28T13:59:48.265Z,2.87
2023-02-28T14:02:30.652Z,2.53
2023-02-28T14:05:03.078Z,2.70
2023-02-28T14:07:36.310Z,3.93
2023-02-28T14:10:09.132Z,3.20
2023-02-28T14:13:04.506Z,2.53
2023-02-28T14:15:58.156Z,2.93
2023-02-28T14:18:27.984Z,2.87
2023-02-28T14:20:59.929Z,3.20
2023-02-28T14:23:45.764Z,3.17
2023-02-28T14:26:21.468Z,3.77
2023-02-28T14:28:58.031Z,2.97
2023-02-28T14:31:31.118Z,2.77
2023-02-28T14:34:07.299Z,2.57
2023-02-28T14:36:37.241Z,3.70
2023-02-28T14:39:09.004Z,2.50
2023-02-28T14:41:39.533Z,4.57
2023-02-28T14:44:16.560Z,2.77
2023-02-28T14:46:47.025Z,4.10
2023-02-28T14:49:18.619Z,2.47
2023-02-28T14:51:48.238Z,4.70
2023-02-28T14:54:17.544Z,2.60
2023-02-28T14:56:45.955Z,2.63
2023-02-28T14:59:26.775Z,2.60
2023-02-28T15:02:10.231Z,2.73
2023-02-28T15:04:38.519Z,2.57
2023-02-28T15:07:10.150Z,2.50
2023-02-28T15:09:38.398Z,2.33
2023-02-28T15:12:06.816Z,2.83
2023-02-28T15:14:35.799Z,2.33
2023-02-28T15:17:08.160Z,2.27
2023-02-28T15:19:37.495Z,2.77
2023-02-28T15:22:08.062Z,3.37
2023-02-28T15:24:40.240Z,3.13
2023-02-28T15:27:10.368Z,2.53
2023-02-28T15:29:46.872Z,2.03
2023-02-28T15:32:26.404Z,3.83
2023-02-28T15:34:55.157Z,2.37
2023-02-28T15:37:39.434Z,4.57
2023-02-28T15:40:13.280Z,3.67
2023-02-28T15:42:41.510Z,2.67
2023-02-28T15:45:24.789Z,3.47
2023-02-28T15:47:56.148Z,2.97
2023-02-28T15:50:24.546Z,4.40
2023-02-28T15:52:52.713Z,1.87
2023-02-28T15:55:22.130Z,4.70
2023-02-28T15:57:51.995Z,5.07
2023-02-28T16:00:22.514Z,3.67
2023-02-28T16:02:50.887Z,2.60
2023-02-28T16:05:29.002Z,5.87
2023-02-28T16:07:57.820Z,2.93
2023-02-28T16:10:27.422Z,4.93
2023-02-28T16:12:56.784Z,4.10
2023-02-28T16:15:26.947Z,2.70
2023-02-28T16:17:55.824Z,3.53
2023-02-28T16:20:26.949Z,2.57
2023-02-28T16:22:55.447Z,4.27
2023-02-28T16:25:27.798Z,3.97
2023-02-28T16:27:58.554Z,2.67
2023-02-28T16:30:27.975Z,3.37
2023-02-28T16:32:57.506Z,3.10
2023-02-28T16:35:27.186Z,5.17
2023-02-28T16:37:55.725Z,2.80
2023-02-28T16:40:26.215Z,2.80
2023-02-28T16:42:55.809Z,3.37
2023-02-28T16:45:25.193Z,2.80
2023-02-28T16:47:53.804Z,5.17
2023-02-28T16:50:22.994Z,3.93
2023-02-28T16:52:55.336Z,2.87
2023-02-28T16:55:24.296Z,2.97
2023-02-28T16:57:53.772Z,3.17
2023-02-28T17:00:22.380Z,2.87
2023-02-28T17:02:50.760Z,2.87
2023-02-28T17:05:19.688Z,2.93
2023-02-28T17:07:48.274Z,3.70
2023-02-28T17:10:19.245Z,4.27
2023-02-28T17:12:47.485Z,5.63
2023-02-28T17:15:17.121Z,4.67
2023-02-28T17:17:45.937Z,5.13
2023-02-28T17:20:15.258Z,3.50
2023-02-28T17:22:43.505Z,3.73
2023-02-28T17:25:12.861Z,6.07
2023-02-28T17:27:42.499Z,3.73
2023-02-28T17:30:17.395Z,4.23
2023-02-28T17:32:45.853Z,4.57
2023-02-28T17:35:14.125Z,3.87
2023-02-28T17:37:42.357Z,4.70
2023-02-28T17:40:15.117Z,3.73
2023-02-28T17:42:44.722Z,3.90
2023-02-28T17:45:13.378Z,3.50
2023-02-28T17:47:42.125Z,3.83
2023-02-28T17:50:14.369Z,4.03
2023-02-28T17:52:42.591Z,4.23
2023-02-28T17:55:11.494Z,4.03
2023-02-28T17:57:39.762Z,3.80
2023-02-28T18:00:10.366Z,4.20
2023-02-28T18:02:38.653Z,4.63
2023-02-28T18:05:07.410Z,4.53
2023-02-28T18:07:35.804Z,4.10
2023-02-28T18:10:04.343Z,5.07
2023-02-28T18:12:36.150Z,5.33
2023-02-28T18:15:04.325Z,4.00
2023-02-28T18:17:35.638Z,7.83
2023-02-28T18:20:05.323Z,6.63
2023-02-28T18:22:44.770Z,6.43
2023-02-28T18:25:14.726Z,5.17
2023-02-28T18:27:56.111Z,7.27
2023-02-28T18:30:34.805Z,5.33
2023-02-28T18:33:07.374Z,6.03
2023-02-28T18:35:35.723Z,4.40
2023-02-28T18:38:04.848Z,5.67
2023-02-28T18:40:33.194Z,4.73
2023-02-28T18:43:01.415Z,6.87
2023-02-28T18:45:29.686Z,6.97
2023-02-28T18:47:57.845Z,7.77
2023-02-28T18:50:27.468Z,9.70
2023-02-28T18:52:57.833Z,13.03
2023-02-28T18:55:27.864Z,12.73
2023-02-28T18:57:56.161Z,10.77
2023-02-28T19:00:25.744Z,9.03
2023-02-28T19:02:54.327Z,8.07
2023-02-28T19:05:22.644Z,8.77
2023-02-28T19:07:52.129Z,7.50
2023-02-28T19:10:20.454Z,5.13
2023-02-28T19:12:48.589Z,7.53
2023-02-28T19:15:16.846Z,6.90
2023-02-28T19:17:46.192Z,6.17
2023-02-28T19:20:14.748Z,8.83
2023-02-28T19:22:43.926Z,7.03
2023-02-28T19:25:13.547Z,7.83
2023-02-28T19:27:41.771Z,8.03
2023-02-28T19:30:10.786Z,8.10
2023-02-28T19:32:39.032Z,8.30
2023-02-28T19:35:07.601Z,12.20
2023-02-28T19:37:38.557Z,7.20
2023-02-28T19:40:07.190Z,8.03
2023-02-28T19:42:37.018Z,6.53
2023-02-28T19:45:05.550Z,6.50
2023-02-28T19:47:33.806Z,6.33
2023-02-28T19:50:02.025Z,6.37
2023-02-28T19:52:30.158Z,7.00
2023-02-28T19:54:58.678Z,6.20
2023-02-28T19:57:26.995Z,7.77
2023-02-28T19:59:56.521Z,5.80
2023-02-28T20:02:24.839Z,5.83
2023-02-28T20:04:54.170Z,6.57
2023-02-28T20:07:22.441Z,6.60
2023-02-28T20:09:50.763Z,7.40
2023-02-28T20:12:24.771Z,10.33
2023-02-28T20:14:53.184Z,9.97
2023-02-28T20:17:22.773Z,7.47
2023-02-28T20:19:51.062Z,7.80
2023-02-28T20:22:19.302Z,8.27
2023-02-28T20:24:48.239Z,8.07
2023-02-28T20:27:17.289Z,12.20
2023-02-28T20:29:45.555Z,11.93
2023-02-28T20:32:14.077Z,10.73
2023-02-28T20:34:43.950Z,10.17
2023-02-28T20:37:12.328Z,7.73
2023-02-28T20:39:40.463Z,9.10
2023-02-28T20:42:08.768Z,9.63
2023-02-28T20:44:36.980Z,7.73
2023-02-28T20:47:05.230Z,8.30
2023-02-28T20:49:33.496Z,7.90
2023-02-28T20:52:03.119Z,9.27
2023-02-28T20:54:31.512Z,11.60
2023-02-28T20:56:59.766Z,9.23
2023-02-28T20:59:27.954Z,9.90
2023-02-28T21:01:56.830Z,11.33
2023-02-28T21:04:25.162Z,12.67
2023-02-28T21:06:53.479Z,10.90
2023-02-28T21:09:22.987Z,10.40
2023-02-28T21:11:51.268Z,12.73
2023-02-28T21:14:19.824Z,10.33
2023-02-28T21:16:48.028Z,10.83
2023-02-28T21:19:16.899Z,11.10
2023-02-28T21:21:46.680Z,10.07
2023-02-28T21:24:16.219Z,10.17
2023-02-28T21:26:47.130Z,9.27
2023-02-28T21:29:16.171Z,8.87
2023-02-28T21:31:44.536Z,9.77
2023-02-28T21:34:14.566Z,8.37
2023-02-28T21:36:45.714Z,9.67
2023-02-28T21:39:15.393Z,8.87
2023-02-28T21:41:43.562Z,8.87
2023-02-28T21:44:18.448Z,9.43
2023-02-28T21:46:47.524Z,8.80
2023-02-28T21:49:16.155Z,10.30
2023-02-28T21:51:44.642Z,12.10
2023-02-28T21:54:13.018Z,9.33
2023-02-28T21:56:41.360Z,11.70
2023-02-28T21:59:09.749Z,9.50
2023-02-28T22:01:40.405Z,9.73
2023-02-28T22:04:09.370Z,9.00
2023-02-28T22:06:39.281Z,9.60
2023-02-28T22:09:09.116Z,10.03
2023-02-28T22:11:38.159Z,10.83
2023-02-28T22:14:07.012Z,11.10
2023-02-28T22:16:50.140Z,9.90
2023-02-28T22:19:20.891Z,9.10
2023-02-28T22:21:49.822Z,9.70
2023-02-28T22:24:20.558Z,9.23
2023-02-28T22:26:50.159Z,11.07
2023-02-28T22:29:18.481Z,9.37
2023-02-28T22:31:46.793Z,9.73
2023-02-28T22:34:15.342Z,9.43
2023-02-28T22:36:44.907Z,9.77
2023-02-28T22:39:13.691Z,9.37
2023-02-28T22:41:42.020Z,10.03
2023-02-28T22:44:10.426Z,9.00
2023-02-28T22:46:38.903Z,9.87
2023-02-28T22:49:07.814Z,11.90
2023-02-28T22:51:36.567Z,11.37
2023-02-28T22:54:06.389Z,9.30
2023-02-28T22:56:34.818Z,10.57
2023-02-28T22:59:03.827Z,10.23
2023-02-28T23:01:33.418Z,9.70
2023-02-28T23:04:03.036Z,11.40
2023-02-28T23:06:32.357Z,9.73
2023-02-28T23:09:01.737Z,11.73
2023-02-28T23:11:32.684Z,11.83
2023-02-28T23:14:01.068Z,9.93
2023-02-28T23:16:30.500Z,10.20
2023-02-28T23:18:59.410Z,10.60
2023-02-28T23:21:28.058Z,9.97
2023-02-28T23:23:56.329Z,9.47
2023-02-28T23:26:24.866Z,10.50
2023-02-28T23:28:54.528Z,11.57
2023-02-28T23:31:23.803Z,11.03
2023-02-28T23:33:52.086Z,10.10
2023-02-28T23:36:20.390Z,10.93
2023-02-28T23:38:50.277Z,10.60
2023-02-28T23:41:18.609Z,9.47
2023-02-28T23:43:47.055Z,10.80
2023-02-28T23:46:16.919Z,11.97
2023-02-28T23:48:45.232Z,9.87
2023-02-28T23:51:14.667Z,10.73
2023-02-28T23:53:43.939Z,10.23
2023-02-28T23:56:14.715Z,13.20
2023-02-28T23:58:43.631Z,11.00
